Atlantis — PCDT — position and weather

sailwx.info

Track history (hours):
 
Tides and Currents Weather Stations Pressure Air Temp Water Temp Dewpoint Dewpoint Depression Visibility Wind Speed Wind Dir Waves Ship Positions

Atlantis (Netherlands)

Ship's website: http://www.tallship-company.com/artemis/gb_atlantis.htm

Last reported at 2019-Jun-16 23:21 UTC. Time now 2019-Jun-17 19:21 UTC.
Position N 49°49' E 000°13'.

Length 40 m; draft 4.5 m.

Type: Sailing vessel. MMSI: 246253000.

Date/timePositionNaut miles runAvg speedWind from/ knotsBaromVisibWave heightAir tempDewpointWater temp
2019-Jun-16 23:21N 49°49' E 000°13'3 7.4
2019-Jun-16 23:00N 49°48' E 000°09'4 7.9
2019-Jun-16 22:30N 49°45' E 000°05'4 8.6
2019-Jun-16 22:00N 49°42' E 000°01'4 8.7
2019-Jun-16 21:30N 49°37' W 000°01'4 8.6
2019-Jun-16 21:00N 49°33' W 000°03'4 7.8
2019-Jun-16 20:30N 49°30' W 000°04'4 7.3
2019-Jun-16 20:00N 49°28' E 000°01'4 7.4
2019-Jun-16 19:30N 49°26' E 000°06'3 6.6
2019-Jun-16 19:00N 49°26' E 000°11'2 4.1
2019-Jun-16 18:28N 49°26' E 000°14'0 0.0
2019-Jun-16 17:58N 49°26' E 000°14'0 0.0
2019-Jun-16 17:28N 49°26' E 000°14'2 4.2
2019-Jun-16 17:00N 49°26' E 000°17'5 9.6
2019-Jun-16 16:30N 49°27' E 000°24'5 9.4
2019-Jun-16 16:00N 49°29' E 000°31'5 9.9
2019-Jun-16 15:30N 49°26' E 000°36'5 9.4
2019-Jun-16 15:00N 49°30' E 000°40'4 7.9
2019-Jun-16 14:30N 49°31' E 000°46'4 8.6
2019-Jun-16 14:00N 49°27' E 000°49'4 7.1
2019-Jun-16 13:30N 49°24' E 000°51'3 7.0
2019-Jun-16 13:00N 49°27' E 000°51'3 5.5
2019-Jun-16 12:30N 49°29' E 000°54'3 5.5
2019-Jun-16 12:00N 49°27' E 000°56'3 5.7
2019-Jun-16 11:28N 49°24' E 000°55'3 5.3
2019-Jun-16 10:58N 49°21' E 000°56'2 5.0
2019-Jun-16 10:30N 49°22' E 000°60'2 4.8
2019-Jun-16 10:00N 49°24' E 001°01'2 4.0
2019-Jun-16 09:30N 49°26' E 001°02'2 3.0
2019-Jun-16 09:00N 49°27' E 001°04'0 0.0
2019-Jun-16 08:24N 49°27' E 001°04'0 0.0
2019-Jun-16 08:00N 49°27' E 001°04'0 0.0
2019-Jun-16 07:27N 49°27' E 001°04'0 0.0
2019-Jun-16 07:00N 49°27' E 001°04'0 0.0
2019-Jun-16 06:27N 49°27' E 001°04'0 0.0
2019-Jun-16 05:48N 49°27' E 001°04'0 0.0
2019-Jun-16 05:30N 49°27' E 001°04'0 0.0
2019-Jun-16 05:00N 49°27' E 001°04'0 0.0
2019-Jun-16 04:30N 49°27' E 001°04'0 0.0
2019-Jun-16 04:00N 49°27' E 001°04'0 0.0
2019-Jun-16 03:30N 49°27' E 001°04'0 0.0
2019-Jun-16 03:00N 49°27' E 001°04'0 0.0
2019-Jun-16 02:30N 49°27' E 001°04'0 0.0
2019-Jun-16 02:00N 49°27' E 001°04'0 0.0
2019-Jun-16 01:30N 49°27' E 001°04'0 0.0
2019-Jun-16 01:00N 49°27' E 001°04'0 0.0
2019-Jun-16 00:30N 49°27' E 001°04'0 0.0
2019-Jun-16 00:00N 49°27' E 001°04'0 0.0
2019-Jun-15 23:30N 49°27' E 001°04'0 0.0
2019-Jun-15 23:00N 49°27' E 001°04'0 0.0
2019-Jun-15 22:30N 49°27' E 001°04'0 0.0
2019-Jun-15 22:00N 49°27' E 001°04'0 0.0
2019-Jun-15 21:30N 49°27' E 001°04'0 0.0
2019-Jun-15 21:00N 49°27' E 001°04'0 0.0
2019-Jun-15 20:30N 49°27' E 001°04'0 0.0
2019-Jun-15 20:00N 49°27' E 001°04'0 0.0
2019-Jun-15 19:30N 49°27' E 001°04'0 0.0
2019-Jun-15 19:00N 49°27' E 001°04'0 0.0
2019-Jun-15 18:30N 49°27' E 001°04'0 0.0
2019-Jun-15 18:00N 49°27' E 001°04'0 0.0
2019-Jun-15 17:30N 49°27' E 001°04'0 0.0
2019-Jun-15 17:00N 49°27' E 001°04'0 0.0
2019-Jun-15 16:30N 49°27' E 001°04'0 0.0
2019-Jun-15 16:00N 49°27' E 001°04'0 0.0
2019-Jun-15 15:30N 49°27' E 001°04'0 0.0
2019-Jun-15 15:00N 49°27' E 001°04'0 0.0
2019-Jun-15 14:28N 49°27' E 001°04'0 0.0
2019-Jun-15 13:58N 49°27' E 001°04'0 0.0
2019-Jun-15 13:28N 49°27' E 001°04'0 0.0
2019-Jun-15 12:58N 49°27' E 001°04'0 0.0
2019-Jun-15 12:28N 49°27' E 001°04'0 0.0
2019-Jun-15 11:58N 49°27' E 001°04'0 0.0
2019-Jun-15 11:28N 49°27' E 001°04'0 0.0
2019-Jun-15 10:58N 49°27' E 001°04'0 0.0
2019-Jun-15 10:25N 49°27' E 001°04'0 0.0
2019-Jun-15 09:58N 49°27' E 001°04'0 0.0
2019-Jun-15 09:28N 49°27' E 001°04'0 0.0
2019-Jun-15 08:58N 49°27' E 001°04'0 0.0
2019-Jun-15 08:28N 49°27' E 001°04'0 0.0
2019-Jun-15 07:58N 49°27' E 001°04'0 0.0
2019-Jun-15 07:25N 49°27' E 001°04'0 0.0
2019-Jun-15 06:58N 49°27' E 001°04'0 0.0
2019-Jun-15 06:28N 49°27' E 001°04'0 0.0
2019-Jun-15 05:58N 49°27' E 001°04'0 0.0
2019-Jun-15 05:28N 49°27' E 001°04'0 0.0
2019-Jun-15 04:58N 49°27' E 001°04'0 0.0
2019-Jun-15 04:28N 49°27' E 001°04'0 0.0
2019-Jun-15 03:58N 49°27' E 001°04'0 0.0
2019-Jun-15 03:25N 49°27' E 001°04'0 0.0
2019-Jun-15 02:58N 49°27' E 001°04'0 0.0
2019-Jun-15 02:28N 49°27' E 001°04'0 0.0
2019-Jun-15 01:55N 49°27' E 001°04'0 0.0
2019-Jun-15 01:25N 49°27' E 001°04'0 0.0
2019-Jun-15 00:55N 49°27' E 001°04'0 0.0
2019-Jun-15 00:28N 49°27' E 001°04'0 0.0
2019-Jun-14 23:58N 49°27' E 001°04'0 0.0
2019-Jun-14 23:28N 49°27' E 001°04'0 0.0
2019-Jun-14 22:58N 49°27' E 001°04'0 0.0
2019-Jun-14 22:28N 49°27' E 001°04'0 0.0
2019-Jun-14 21:58N 49°27' E 001°04'0 0.0
2019-Jun-14 21:28N 49°27' E 001°04'0 0.0
2019-Jun-14 20:58N 49°27' E 001°04'0 0.0
2019-Jun-14 20:28N 49°27' E 001°04'0 0.0
2019-Jun-14 19:58N 49°27' E 001°04'0 0.0
2019-Jun-14 19:25N 49°27' E 001°04'0 0.0
2019-Jun-14 18:55N 49°27' E 001°04'0 0.0
2019-Jun-14 18:28N 49°27' E 001°04'0 0.0
2019-Jun-14 17:58N 49°27' E 001°04'0 0.0
2019-Jun-14 17:25N 49°27' E 001°04'0 0.0
2019-Jun-14 16:58N 49°27' E 001°04'0 0.0
2019-Jun-14 16:28N 49°27' E 001°04'0 0.0
2019-Jun-14 15:58N 49°27' E 001°04'0 0.0
2019-Jun-14 15:25N 49°27' E 001°04'0 0.0
2019-Jun-14 14:55N 49°27' E 001°04'0 0.0
2019-Jun-14 14:28N 49°27' E 001°04'0 0.0
2019-Jun-14 13:58N 49°27' E 001°04'0 0.0
2019-Jun-14 13:25N 49°27' E 001°04'0 0.0
2019-Jun-14 12:58N 49°27' E 001°04'0 0.0
2019-Jun-14 12:28N 49°27' E 001°04'0 0.0
2019-Jun-14 11:58N 49°27' E 001°04'0 0.0
2019-Jun-14 11:28N 49°27' E 001°04'0 0.0
2019-Jun-14 10:58N 49°27' E 001°04'0 0.0
2019-Jun-14 10:28N 49°27' E 001°04'0 0.0
2019-Jun-14 09:58N 49°27' E 001°04'0 0.0
2019-Jun-14 09:25N 49°27' E 001°04'0 0.0
2019-Jun-14 08:58N 49°27' E 001°04'0 0.0
2019-Jun-14 08:28N 49°27' E 001°04'0 0.0
2019-Jun-14 07:58N 49°27' E 001°04'0 0.0
2019-Jun-14 07:25N 49°27' E 001°04'0 0.0
2019-Jun-14 06:58N 49°27' E 001°04'0 0.0
2019-Jun-14 06:28N 49°27' E 001°04'0 0.0
2019-Jun-14 05:58N 49°27' E 001°04'0 0.0
2019-Jun-14 05:28N 49°27' E 001°04'0 0.0
2019-Jun-14 04:58N 49°27' E 001°04'0 0.0
2019-Jun-14 04:28N 49°27' E 001°04'0 0.0
2019-Jun-14 03:58N 49°27' E 001°04'0 0.0
2019-Jun-14 03:28N 49°27' E 001°04'0 0.0
2019-Jun-14 02:55N 49°27' E 001°04'0 0.0
2019-Jun-14 02:28N 49°27' E 001°04'0 0.0
2019-Jun-14 01:58N 49°27' E 001°04'0 0.0
2019-Jun-14 01:28N 49°27' E 001°04'0 0.0
2019-Jun-14 00:55N 49°27' E 001°04'0 0.0
2019-Jun-14 00:28N 49°27' E 001°04'0 0.0
2019-Jun-13 23:58N 49°27' E 001°04'0 0.0
2019-Jun-13 23:28N 49°27' E 001°04'0 0.0
2019-Jun-13 22:58N 49°27' E 001°04'0 0.0
2019-Jun-13 22:25N 49°27' E 001°04'0 0.0
2019-Jun-13 21:58N 49°27' E 001°04'0 0.0
2019-Jun-13 21:28N 49°27' E 001°04'0 0.0
2019-Jun-13 20:58N 49°27' E 001°04'0 0.0
2019-Jun-13 20:28N 49°27' E 001°04'0 0.0
2019-Jun-13 19:58N 49°27' E 001°04'0 0.0
2019-Jun-13 19:28N 49°27' E 001°04'0 0.0
2019-Jun-13 18:58N 49°27' E 001°04'0 0.0
2019-Jun-13 18:25N 49°27' E 001°04'0 0.0
2019-Jun-13 17:58N 49°27' E 001°04'0 0.0
2019-Jun-13 17:28N 49°27' E 001°04'0 0.0
2019-Jun-13 16:58N 49°27' E 001°04'0 0.0
2019-Jun-13 16:28N 49°27' E 001°04'0 0.0
2019-Jun-13 15:55N 49°27' E 001°04'0 0.0
2019-Jun-13 15:28N 49°27' E 001°04'0 0.0
2019-Jun-13 14:55N 49°27' E 001°04'0 0.0
2019-Jun-13 14:28N 49°27' E 001°04'0 0.0
2019-Jun-13 13:58N 49°27' E 001°04'0 0.0
2019-Jun-13 13:28N 49°27' E 001°04'0 0.0
2019-Jun-13 12:58N 49°27' E 001°04'0 0.0
2019-Jun-13 12:28N 49°27' E 001°04'0 0.0
2019-Jun-13 11:58N 49°27' E 001°04'0 0.0
2019-Jun-13 11:28N 49°27' E 001°04'0 0.0
2019-Jun-13 10:58N 49°27' E 001°04'0 0.0
2019-Jun-13 10:28N 49°27' E 001°04'0 0.0
2019-Jun-13 09:58N 49°27' E 001°04'0 0.0
2019-Jun-13 09:28N 49°27' E 001°04'0 0.0
2019-Jun-13 08:58N 49°27' E 001°04'0 0.0
2019-Jun-13 08:28N 49°27' E 001°04'0 0.0
2019-Jun-13 07:58N 49°27' E 001°04'0 0.0
2019-Jun-13 07:28N 49°27' E 001°04'0 0.0
2019-Jun-13 06:58N 49°27' E 001°04'0 0.0
2019-Jun-13 06:28N 49°27' E 001°04'0 0.0
2019-Jun-13 05:58N 49°27' E 001°04'0 0.0
2019-Jun-13 05:25N 49°27' E 001°04'0 0.0
2019-Jun-13 04:58N 49°27' E 001°04'0 0.0
2019-Jun-13 04:22N 49°27' E 001°04'0 0.0
2019-Jun-13 03:58N 49°27' E 001°04'0 0.0
2019-Jun-13 03:25N 49°27' E 001°04'0 0.0
2019-Jun-13 02:55N 49°27' E 001°04'0 0.0
2019-Jun-13 02:25N 49°27' E 001°04'0 0.0
2019-Jun-13 01:55N 49°27' E 001°04'0 0.0
2019-Jun-13 01:28N 49°27' E 001°04'0 0.0
2019-Jun-13 00:58N 49°27' E 001°04'0 0.0
2019-Jun-13 00:28N 49°27' E 001°04'0 0.0
2019-Jun-12 23:58N 49°27' E 001°04'0 0.0
2019-Jun-12 23:28N 49°27' E 001°04'0 0.0
2019-Jun-12 22:58N 49°27' E 001°04'0 0.0
2019-Jun-12 22:28N 49°27' E 001°04'0 0.0
2019-Jun-12 21:55N 49°27' E 001°04'0 0.0
2019-Jun-12 21:25N 49°27' E 001°04'0 0.0
2019-Jun-12 20:55N 49°27' E 001°04'0 0.0
2019-Jun-12 20:28N 49°27' E 001°04'0 0.0
2019-Jun-12 19:55N 49°27' E 001°04'0 0.0
2019-Jun-12 19:28N 49°27' E 001°04'0 0.0
2019-Jun-12 18:55N 49°27' E 001°04'0 0.0
2019-Jun-12 18:25N 49°27' E 001°04'0 0.0
2019-Jun-12 17:58N 49°27' E 001°04'0 0.0
2019-Jun-12 17:28N 49°27' E 001°04'0 0.0
2019-Jun-12 16:58N 49°27' E 001°04'0 0.0
2019-Jun-12 16:28N 49°27' E 001°04'0 0.0
2019-Jun-12 15:58N 49°27' E 001°04'0 0.0
2019-Jun-12 15:25N 49°27' E 001°04'0 0.0
2019-Jun-12 14:58N 49°27' E 001°04'0 0.0
2019-Jun-12 14:28N 49°27' E 001°04'0 0.0
2019-Jun-12 13:55N 49°27' E 001°04'0 0.0
2019-Jun-12 13:25N 49°27' E 001°04'0 0.0
2019-Jun-12 12:58N 49°27' E 001°04'0 0.0
2019-Jun-12 12:28N 49°27' E 001°04'0 0.0
2019-Jun-12 11:58N 49°27' E 001°04'0 0.0
2019-Jun-12 11:28N 49°27' E 001°04'0 0.0
2019-Jun-12 10:58N 49°27' E 001°04'0 0.0
2019-Jun-12 10:28N 49°27' E 001°04'0 0.0
2019-Jun-12 09:58N 49°27' E 001°04'0 0.0
2019-Jun-12 09:28N 49°27' E 001°04'0 0.0
2019-Jun-12 08:55N 49°27' E 001°04'0 0.0
2019-Jun-12 08:28N 49°27' E 001°04'0 0.0
2019-Jun-12 07:58N 49°27' E 001°04'0 0.0
2019-Jun-12 07:28N 49°27' E 001°04'0 0.0
2019-Jun-12 06:58N 49°27' E 001°04'0 0.0
2019-Jun-12 06:28N 49°27' E 001°04'0 0.0
2019-Jun-12 05:52N 49°27' E 001°04'0 0.0
2019-Jun-12 05:28N 49°27' E 001°04'0 0.0
2019-Jun-12 04:58N 49°27' E 001°04'0 0.0
2019-Jun-12 04:22N 49°27' E 001°04'0 0.0
2019-Jun-12 03:58N 49°27' E 001°04'0 0.0
2019-Jun-12 03:28N 49°27' E 001°04'0 0.0
2019-Jun-12 02:55N 49°27' E 001°04'0 0.0
2019-Jun-12 01:58N 49°27' E 001°04'0 0.0
2019-Jun-12 01:28N 49°27' E 001°04'0 0.0
2019-Jun-12 00:58N 49°27' E 001°04'0 0.0
2019-Jun-12 00:28N 49°27' E 001°04'0 0.0
2019-Jun-11 23:58N 49°27' E 001°04'0 0.0
2019-Jun-11 23:28N 49°27' E 001°04'0 0.0
2019-Jun-11 22:58N 49°27' E 001°04'0 0.0
2019-Jun-11 22:28N 49°27' E 001°04'0 0.0
2019-Jun-11 21:58N 49°27' E 001°04'0 0.0
2019-Jun-11 21:28N 49°27' E 001°04'0 0.0
2019-Jun-11 20:55N 49°27' E 001°04'0 0.0
2019-Jun-11 20:28N 49°27' E 001°04'0 0.0
2019-Jun-11 19:58N 49°27' E 001°04'0 0.0
2019-Jun-11 19:28N 49°27' E 001°04'0 0.0
2019-Jun-11 18:58N 49°27' E 001°04'0 0.0
2019-Jun-11 18:28N 49°27' E 001°04'0 0.0
2019-Jun-11 17:58N 49°27' E 001°04'0 0.0
2019-Jun-11 17:28N 49°27' E 001°04'0 0.0
2019-Jun-11 16:58N 49°27' E 001°04'0 0.0
2019-Jun-11 16:25N 49°27' E 001°04'0 0.0
2019-Jun-11 15:58N 49°27' E 001°04'0 0.0
2019-Jun-11 15:25N 49°27' E 001°04'0 0.0
2019-Jun-11 14:55N 49°27' E 001°04'0 0.0
2019-Jun-11 14:28N 49°27' E 001°04'0 0.0
2019-Jun-11 13:55N 49°27' E 001°04'0 0.0
2019-Jun-11 13:28N 49°27' E 001°04'0 0.0
2019-Jun-11 12:58N 49°27' E 001°04'0 0.0
2019-Jun-11 12:25N 49°27' E 001°04'0 0.0
2019-Jun-11 11:55N 49°27' E 001°04'0 0.0
2019-Jun-11 11:28N 49°27' E 001°04'0 0.0
2019-Jun-11 10:58N 49°27' E 001°04'0 0.0
2019-Jun-11 10:28N 49°27' E 001°04'0 0.0
2019-Jun-11 09:58N 49°27' E 001°04'0 0.0
2019-Jun-11 09:25N 49°27' E 001°04'0 0.0
2019-Jun-11 08:58N 49°27' E 001°04'0 0.0
2019-Jun-11 08:28N 49°27' E 001°04'0 0.0
2019-Jun-11 07:58N 49°27' E 001°04'0 0.0
2019-Jun-11 07:28N 49°27' E 001°04'0 0.0
2019-Jun-11 06:58N 49°27' E 001°04'0 0.0
2019-Jun-11 06:28N 49°27' E 001°04'0 0.0
2019-Jun-11 05:58N 49°27' E 001°04'0 0.0
2019-Jun-11 05:28N 49°27' E 001°04'0 0.0
2019-Jun-11 04:58N 49°27' E 001°04'0 0.0
2019-Jun-11 04:22N 49°27' E 001°04'0 0.0
2019-Jun-11 03:55N 49°27' E 001°04'0 0.0
2019-Jun-11 03:25N 49°27' E 001°04'0 0.0
2019-Jun-11 02:49N 49°27' E 001°04'0 0.0
2019-Jun-11 02:28N 49°27' E 001°04'0 0.0
2019-Jun-11 01:55N 49°27' E 001°04'0 0.0
2019-Jun-11 01:28N 49°27' E 001°04'0 0.0
2019-Jun-11 00:55N 49°27' E 001°04'0 0.0
2019-Jun-11 00:28N 49°27' E 001°04'0 0.0
2019-Jun-10 23:58N 49°27' E 001°04'0 0.0
2019-Jun-10 23:25N 49°27' E 001°04'0 0.0
2019-Jun-10 22:58N 49°27' E 001°04'0 0.0
2019-Jun-10 22:28N 49°27' E 001°04'0 0.0
2019-Jun-10 21:55N 49°27' E 001°04'0 0.0
2019-Jun-10 21:28N 49°27' E 001°04'0 0.0
2019-Jun-10 20:58N 49°27' E 001°04'0 0.0
2019-Jun-10 20:28N 49°27' E 001°04'0 0.0
2019-Jun-10 19:58N 49°27' E 001°04'0 0.0
2019-Jun-10 19:28N 49°27' E 001°04'0 0.0
2019-Jun-10 18:58N 49°27' E 001°04'0 0.0
2019-Jun-10 18:28N 49°27' E 001°04'0 0.0
2019-Jun-10 17:58N 49°27' E 001°04'0 0.0
2019-Jun-10 17:25N 49°27' E 001°04'0 0.0
2019-Jun-10 16:58N 49°27' E 001°04'0 0.0
2019-Jun-10 16:25N 49°27' E 001°04'0 0.0
2019-Jun-10 15:55N 49°27' E 001°04'0 0.0
2019-Jun-10 15:28N 49°27' E 001°04'0 0.0
2019-Jun-10 14:58N 49°27' E 001°04'0 0.0
2019-Jun-10 14:25N 49°27' E 001°04'0 0.0
2019-Jun-10 13:58N 49°27' E 001°04'0 0.0
2019-Jun-10 13:28N 49°27' E 001°04'0 0.0
2019-Jun-10 12:55N 49°27' E 001°04'0 0.0
2019-Jun-10 12:28N 49°27' E 001°04'0 0.0
2019-Jun-10 11:58N 49°27' E 001°04'0 0.0
2019-Jun-10 11:28N 49°27' E 001°04'0 0.0
2019-Jun-10 10:58N 49°27' E 001°04'0 0.0
2019-Jun-10 10:28N 49°27' E 001°04'0 0.0
2019-Jun-10 09:55N 49°27' E 001°04'0 0.0
2019-Jun-10 09:28N 49°27' E 001°04'0 0.0
2019-Jun-10 08:58N 49°27' E 001°04'0 0.0
2019-Jun-10 08:28N 49°27' E 001°04'0 0.0
2019-Jun-10 07:58N 49°27' E 001°04'0 0.0
2019-Jun-10 07:25N 49°27' E 001°04'0 0.0
2019-Jun-10 06:58N 49°27' E 001°04'0 0.0
2019-Jun-10 06:28N 49°27' E 001°04'0 0.0
2019-Jun-10 05:55N 49°27' E 001°04'0 0.0
2019-Jun-10 05:31N 49°27' E 001°04'2 4.3
2019-Jun-10 05:00N 49°25' E 001°01'4 8.7
2019-Jun-10 04:30N 49°21' E 000°59'4 7.1
2019-Jun-10 04:01N 49°24' E 000°55'5 9.6
2019-Jun-10 03:30N 49°29' E 000°55'4 8.0
2019-Jun-10 03:00N 49°26' E 000°52'2 4.5
2019-Jun-10 02:30N 49°25' E 000°48'4 8.6
2019-Jun-10 02:01N 49°29' E 000°46'4 8.0
2019-Jun-10 01:31N 49°31' E 000°41'510.2
2019-Jun-10 01:01N 49°26' E 000°38'5 9.8
2019-Jun-10 00:31N 49°29' E 000°31'5 9.6
2019-Jun-10 00:01N 49°27' E 000°25'5 9.6
2019-Jun-09 23:31N 49°26' E 000°17'4 8.8
2019-Jun-09 23:01N 49°26' E 000°11'4 8.0
2019-Jun-09 22:31N 49°26' E 000°04'4 7.5
2019-Jun-09 22:01N 49°28' W 000°00'0 0.2
2019-Jun-09 21:30N 49°28' W 000°00'2 3.4
2019-Jun-09 21:00N 49°29' W 000°03'2 4.6
2019-Jun-09 20:30N 49°31' W 000°05'3 5.5
2019-Jun-09 20:00N 49°33' W 000°04'4 7.8
2019-Jun-09 19:30N 49°37' W 000°02'4 8.3
2019-Jun-09 19:00N 49°41' E 000°00'4 8.6
2019-Jun-09 18:30N 49°45' E 000°04'5 9.1
2019-Jun-09 18:00N 49°48' E 000°09'5 8.9
2019-Jun-09 17:29N 49°51' E 000°14'17 8.0
2019-Jun-09 15:23N 50°02' E 000°34'10 6.5
2019-Jun-09 13:52N 50°08' E 000°46'61 6.0
2019-Jun-09 03:43N 50°58' E 001°41'1 2.8
2019-Jun-09 03:28N 50°58' E 001°43'2 3.6
2019-Jun-09 03:00N 50°58' E 001°45'2 3.6
2019-Jun-09 02:30N 50°58' E 001°48'2 4.1
2019-Jun-09 01:59N 50°58' E 001°51'0 0.1
2019-Jun-08 23:23N 50°58' E 001°52'0 0.0
2019-Jun-08 22:35N 50°58' E 001°52'0 0.0
2019-Jun-08 21:47N 50°58' E 001°52'0 0.0
2019-Jun-08 21:23N 50°58' E 001°52'0 0.0
2019-Jun-08 20:59N 50°58' E 001°52'0 0.0
2019-Jun-08 18:59N 50°58' E 001°52'0 0.0
2019-Jun-08 18:20N 50°58' E 001°52'0 0.0
2019-Jun-08 17:56N 50°58' E 001°52'0 0.0
2019-Jun-08 17:11N 50°58' E 001°52'0 0.0
2019-Jun-08 14:20N 50°58' E 001°52'0 0.0
2019-Jun-08 13:38N 50°58' E 001°52'0 0.0
2019-Jun-08 13:14N 50°58' E 001°52'0 0.0
2019-Jun-08 12:59N 50°58' E 001°52'0 0.0
2019-Jun-08 12:14N 50°58' E 001°52'0 0.0
2019-Jun-08 11:59N 50°58' E 001°52'0 0.0
2019-Jun-08 11:29N 50°58' E 001°52'0 0.0
2019-Jun-08 10:59N 50°58' E 001°52'0 0.0
2019-Jun-08 10:29N 50°58' E 001°52'0 0.0
2019-Jun-08 09:56N 50°58' E 001°52'0 0.0
2019-Jun-08 09:26N 50°58' E 001°52'0 0.0
2019-Jun-08 08:53N 50°58' E 001°52'0 0.0
2019-Jun-08 08:23N 50°58' E 001°52'0 0.0
2019-Jun-08 07:59N 50°58' E 001°52'0 0.0
2019-Jun-08 07:26N 50°58' E 001°52'0 0.0
2019-Jun-08 06:41N 50°58' E 001°52'0 0.0
2019-Jun-08 06:20N 50°58' E 001°52'0 0.0
2019-Jun-08 05:59N 50°58' E 001°52'0 0.0
2019-Jun-08 05:26N 50°58' E 001°52'0 0.0
2019-Jun-08 04:56N 50°58' E 001°52'0 0.0
2019-Jun-08 04:29N 50°58' E 001°52'0 0.0
2019-Jun-08 03:35N 50°58' E 001°52'0 0.0
2019-Jun-08 03:08N 50°58' E 001°52'0 0.0
2019-Jun-08 02:59N 50°58' E 001°52'0 0.0
2019-Jun-08 02:29N 50°58' E 001°52'0 0.0
2019-Jun-08 01:35N 50°58' E 001°52'0 0.0
2019-Jun-08 01:26N 50°58' E 001°52'0 0.0
2019-Jun-08 00:59N 50°58' E 001°52'0 0.0
2019-Jun-08 00:26N 50°58' E 001°52'0 0.0
2019-Jun-07 23:56N 50°58' E 001°52'0 0.0
2019-Jun-07 23:29N 50°58' E 001°52'0 0.0
2019-Jun-07 21:11N 50°58' E 001°52'0 0.0
2019-Jun-07 18:35N 50°58' E 001°52'0 0.0
2019-Jun-07 18:23N 50°58' E 001°52'0 0.0
2019-Jun-07 17:23N 50°58' E 001°52'0 0.0
2019-Jun-07 16:35N 50°58' E 001°52'0 0.0
2019-Jun-07 15:05N 50°58' E 001°52'0 0.0
2019-Jun-07 14:05N 50°58' E 001°52'0 0.1
2019-Jun-07 13:59N 50°58' E 001°52'0 0.0
2019-Jun-07 11:23N 50°58' E 001°52'0 0.0
2019-Jun-07 10:59N 50°58' E 001°52'0 0.0
2019-Jun-07 09:59N 50°58' E 001°52'0 0.1
2019-Jun-07 09:26N 50°58' E 001°52'0 0.0
2019-Jun-07 08:59N 50°58' E 001°52'0 0.0
2019-Jun-07 08:20N 50°58' E 001°52'0 0.0
2019-Jun-07 07:59N 50°58' E 001°52'0 0.0
2019-Jun-07 07:11N 50°58' E 001°52'0 0.0
2019-Jun-07 06:56N 50°58' E 001°52'0 0.0
2019-Jun-07 06:26N 50°58' E 001°52'0 0.0
2019-Jun-07 05:53N 50°58' E 001°52'0 0.0
2019-Jun-07 05:23N 50°58' E 001°52'0 0.0
2019-Jun-07 04:20N 50°58' E 001°52'0 0.0
2019-Jun-07 03:26N 50°58' E 001°52'0 0.0
2019-Jun-07 02:32N 50°58' E 001°52'0 0.0
2019-Jun-07 01:59N 50°58' E 001°52'0 0.0
2019-Jun-07 00:59N 50°58' E 001°52'0 0.0
2019-Jun-07 00:23N 50°58' E 001°52'0 0.0
2019-Jun-06 23:56N 50°58' E 001°52'0 0.0
2019-Jun-06 23:11N 50°58' E 001°52'0 0.0
2019-Jun-06 22:53N 50°58' E 001°52'  
Track history (hours):
 
Tides and Currents Weather Stations Pressure Air Temp Water Temp Dewpoint Dewpoint Depression Visibility Wind Speed Wind Dir Waves Ship Positions

Atlantis (Netherlands)

Ship's website: http://www.tallship-company.com/artemis/gb_atlantis.htm

Last reported at 2019-Jun-16 23:21 UTC. Time now 2019-Jun-17 19:21 UTC.
Position N 49°49' E 000°13'.

Length 40 m; draft 4.5 m.

Type: Sailing vessel. MMSI: 246253000.

Date/timePositionNaut miles runAvg speedWind from/ knotsBaromVisibWave heightAir tempDewpointWater temp
2019-Jun-16 23:21N 49°49' E 000°13'3 7.4
2019-Jun-16 23:00N 49°48' E 000°09'4 7.9
2019-Jun-16 22:30N 49°45' E 000°05'4 8.6
2019-Jun-16 22:00N 49°42' E 000°01'4 8.7
2019-Jun-16 21:30N 49°37' W 000°01'4 8.6
2019-Jun-16 21:00N 49°33' W 000°03'4 7.8
2019-Jun-16 20:30N 49°30' W 000°04'4 7.3
2019-Jun-16 20:00N 49°28' E 000°01'4 7.4
2019-Jun-16 19:30N 49°26' E 000°06'3 6.6
2019-Jun-16 19:00N 49°26' E 000°11'2 4.1
2019-Jun-16 18:28N 49°26' E 000°14'0 0.0
2019-Jun-16 17:58N 49°26' E 000°14'0 0.0
2019-Jun-16 17:28N 49°26' E 000°14'2 4.2
2019-Jun-16 17:00N 49°26' E 000°17'5 9.6
2019-Jun-16 16:30N 49°27' E 000°24'5 9.4
2019-Jun-16 16:00N 49°29' E 000°31'5 9.9
2019-Jun-16 15:30N 49°26' E 000°36'5 9.4
2019-Jun-16 15:00N 49°30' E 000°40'4 7.9
2019-Jun-16 14:30N 49°31' E 000°46'4 8.6
2019-Jun-16 14:00N 49°27' E 000°49'4 7.1
2019-Jun-16 13:30N 49°24' E 000°51'3 7.0
2019-Jun-16 13:00N 49°27' E 000°51'3 5.5
2019-Jun-16 12:30N 49°29' E 000°54'3 5.5
2019-Jun-16 12:00N 49°27' E 000°56'3 5.7
2019-Jun-16 11:28N 49°24' E 000°55'3 5.3
2019-Jun-16 10:58N 49°21' E 000°56'2 5.0
2019-Jun-16 10:30N 49°22' E 000°60'2 4.8
2019-Jun-16 10:00N 49°24' E 001°01'2 4.0
2019-Jun-16 09:30N 49°26' E 001°02'2 3.0
2019-Jun-16 09:00N 49°27' E 001°04'0 0.0
2019-Jun-16 08:24N 49°27' E 001°04'0 0.0
2019-Jun-16 08:00N 49°27' E 001°04'0 0.0
2019-Jun-16 07:27N 49°27' E 001°04'0 0.0
2019-Jun-16 07:00N 49°27' E 001°04'0 0.0
2019-Jun-16 06:27N 49°27' E 001°04'0 0.0
2019-Jun-16 05:48N 49°27' E 001°04'0 0.0
2019-Jun-16 05:30N 49°27' E 001°04'0 0.0
2019-Jun-16 05:00N 49°27' E 001°04'0 0.0
2019-Jun-16 04:30N 49°27' E 001°04'0 0.0
2019-Jun-16 04:00N 49°27' E 001°04'0 0.0
2019-Jun-16 03:30N 49°27' E 001°04'0 0.0
2019-Jun-16 03:00N 49°27' E 001°04'0 0.0
2019-Jun-16 02:30N 49°27' E 001°04'0 0.0
2019-Jun-16 02:00N 49°27' E 001°04'0 0.0
2019-Jun-16 01:30N 49°27' E 001°04'0 0.0
2019-Jun-16 01:00N 49°27' E 001°04'0 0.0
2019-Jun-16 00:30N 49°27' E 001°04'0 0.0
2019-Jun-16 00:00N 49°27' E 001°04'0 0.0
2019-Jun-15 23:30N 49°27' E 001°04'0 0.0
2019-Jun-15 23:00N 49°27' E 001°04'0 0.0
2019-Jun-15 22:30N 49°27' E 001°04'0 0.0
2019-Jun-15 22:00N 49°27' E 001°04'0 0.0
2019-Jun-15 21:30N 49°27' E 001°04'0 0.0
2019-Jun-15 21:00N 49°27' E 001°04'0 0.0
2019-Jun-15 20:30N 49°27' E 001°04'0 0.0
2019-Jun-15 20:00N 49°27' E 001°04'0 0.0
2019-Jun-15 19:30N 49°27' E 001°04'0 0.0
2019-Jun-15 19:00N 49°27' E 001°04'0 0.0
2019-Jun-15 18:30N 49°27' E 001°04'0 0.0
2019-Jun-15 18:00N 49°27' E 001°04'0 0.0
2019-Jun-15 17:30N 49°27' E 001°04'0 0.0
2019-Jun-15 17:00N 49°27' E 001°04'0 0.0
2019-Jun-15 16:30N 49°27' E 001°04'0 0.0
2019-Jun-15 16:00N 49°27' E 001°04'0 0.0
2019-Jun-15 15:30N 49°27' E 001°04'0 0.0
2019-Jun-15 15:00N 49°27' E 001°04'0 0.0
2019-Jun-15 14:28N 49°27' E 001°04'0 0.0
2019-Jun-15 13:58N 49°27' E 001°04'0 0.0
2019-Jun-15 13:28N 49°27' E 001°04'0 0.0
2019-Jun-15 12:58N 49°27' E 001°04'0 0.0
2019-Jun-15 12:28N 49°27' E 001°04'0 0.0
2019-Jun-15 11:58N 49°27' E 001°04'0 0.0
2019-Jun-15 11:28N 49°27' E 001°04'0 0.0
2019-Jun-15 10:58N 49°27' E 001°04'0 0.0
2019-Jun-15 10:25N 49°27' E 001°04'0 0.0
2019-Jun-15 09:58N 49°27' E 001°04'0 0.0
2019-Jun-15 09:28N 49°27' E 001°04'0 0.0
2019-Jun-15 08:58N 49°27' E 001°04'0 0.0
2019-Jun-15 08:28N 49°27' E 001°04'0 0.0
2019-Jun-15 07:58N 49°27' E 001°04'0 0.0
2019-Jun-15 07:25N 49°27' E 001°04'0 0.0
2019-Jun-15 06:58N 49°27' E 001°04'0 0.0
2019-Jun-15 06:28N 49°27' E 001°04'0 0.0
2019-Jun-15 05:58N 49°27' E 001°04'0 0.0
2019-Jun-15 05:28N 49°27' E 001°04'0 0.0
2019-Jun-15 04:58N 49°27' E 001°04'0 0.0
2019-Jun-15 04:28N 49°27' E 001°04'0 0.0
2019-Jun-15 03:58N 49°27' E 001°04'0 0.0
2019-Jun-15 03:25N 49°27' E 001°04'0 0.0
2019-Jun-15 02:58N 49°27' E 001°04'0 0.0
2019-Jun-15 02:28N 49°27' E 001°04'0 0.0
2019-Jun-15 01:55N 49°27' E 001°04'0 0.0
2019-Jun-15 01:25N 49°27' E 001°04'0 0.0
2019-Jun-15 00:55N 49°27' E 001°04'0 0.0
2019-Jun-15 00:28N 49°27' E 001°04'0 0.0
2019-Jun-14 23:58N 49°27' E 001°04'0 0.0
2019-Jun-14 23:28N 49°27' E 001°04'0 0.0
2019-Jun-14 22:58N 49°27' E 001°04'0 0.0
2019-Jun-14 22:28N 49°27' E 001°04'0 0.0
2019-Jun-14 21:58N 49°27' E 001°04'0 0.0
2019-Jun-14 21:28N 49°27' E 001°04'0 0.0
2019-Jun-14 20:58N 49°27' E 001°04'0 0.0
2019-Jun-14 20:28N 49°27' E 001°04'0 0.0
2019-Jun-14 19:58N 49°27' E 001°04'0 0.0
2019-Jun-14 19:25N 49°27' E 001°04'0 0.0
2019-Jun-14 18:55N 49°27' E 001°04'0 0.0
2019-Jun-14 18:28N 49°27' E 001°04'0 0.0
2019-Jun-14 17:58N 49°27' E 001°04'0 0.0
2019-Jun-14 17:25N 49°27' E 001°04'0 0.0
2019-Jun-14 16:58N 49°27' E 001°04'0 0.0
2019-Jun-14 16:28N 49°27' E 001°04'0 0.0
2019-Jun-14 15:58N 49°27' E 001°04'0 0.0
2019-Jun-14 15:25N 49°27' E 001°04'0 0.0
2019-Jun-14 14:55N 49°27' E 001°04'0 0.0
2019-Jun-14 14:28N 49°27' E 001°04'0 0.0
2019-Jun-14 13:58N 49°27' E 001°04'0 0.0
2019-Jun-14 13:25N 49°27' E 001°04'0 0.0
2019-Jun-14 12:58N 49°27' E 001°04'0 0.0
2019-Jun-14 12:28N 49°27' E 001°04'0 0.0
2019-Jun-14 11:58N 49°27' E 001°04'0 0.0
2019-Jun-14 11:28N 49°27' E 001°04'0 0.0
2019-Jun-14 10:58N 49°27' E 001°04'0 0.0
2019-Jun-14 10:28N 49°27' E 001°04'0 0.0
2019-Jun-14 09:58N 49°27' E 001°04'0 0.0
2019-Jun-14 09:25N 49°27' E 001°04'0 0.0
2019-Jun-14 08:58N 49°27' E 001°04'0 0.0
2019-Jun-14 08:28N 49°27' E 001°04'0 0.0
2019-Jun-14 07:58N 49°27' E 001°04'0 0.0
2019-Jun-14 07:25N 49°27' E 001°04'0 0.0
2019-Jun-14 06:58N 49°27' E 001°04'0 0.0
2019-Jun-14 06:28N 49°27' E 001°04'0 0.0
2019-Jun-14 05:58N 49°27' E 001°04'0 0.0
2019-Jun-14 05:28N 49°27' E 001°04'0 0.0
2019-Jun-14 04:58N 49°27' E 001°04'0 0.0
2019-Jun-14 04:28N 49°27' E 001°04'0 0.0
2019-Jun-14 03:58N 49°27' E 001°04'0 0.0
2019-Jun-14 03:28N 49°27' E 001°04'0 0.0
2019-Jun-14 02:55N 49°27' E 001°04'0 0.0
2019-Jun-14 02:28N 49°27' E 001°04'0 0.0
2019-Jun-14 01:58N 49°27' E 001°04'0 0.0
2019-Jun-14 01:28N 49°27' E 001°04'0 0.0
2019-Jun-14 00:55N 49°27' E 001°04'0 0.0
2019-Jun-14 00:28N 49°27' E 001°04'0 0.0
2019-Jun-13 23:58N 49°27' E 001°04'0 0.0
2019-Jun-13 23:28N 49°27' E 001°04'0 0.0
2019-Jun-13 22:58N 49°27' E 001°04'0 0.0
2019-Jun-13 22:25N 49°27' E 001°04'0 0.0
2019-Jun-13 21:58N 49°27' E 001°04'0 0.0
2019-Jun-13 21:28N 49°27' E 001°04'0 0.0
2019-Jun-13 20:58N 49°27' E 001°04'0 0.0
2019-Jun-13 20:28N 49°27' E 001°04'0 0.0
2019-Jun-13 19:58N 49°27' E 001°04'0 0.0
2019-Jun-13 19:28N 49°27' E 001°04'0 0.0
2019-Jun-13 18:58N 49°27' E 001°04'0 0.0
2019-Jun-13 18:25N 49°27' E 001°04'0 0.0
2019-Jun-13 17:58N 49°27' E 001°04'0 0.0
2019-Jun-13 17:28N 49°27' E 001°04'0 0.0
2019-Jun-13 16:58N 49°27' E 001°04'0 0.0
2019-Jun-13 16:28N 49°27' E 001°04'0 0.0
2019-Jun-13 15:55N 49°27' E 001°04'0 0.0
2019-Jun-13 15:28N 49°27' E 001°04'0 0.0
2019-Jun-13 14:55N 49°27' E 001°04'0 0.0
2019-Jun-13 14:28N 49°27' E 001°04'0 0.0
2019-Jun-13 13:58N 49°27' E 001°04'0 0.0
2019-Jun-13 13:28N 49°27' E 001°04'0 0.0
2019-Jun-13 12:58N 49°27' E 001°04'0 0.0
2019-Jun-13 12:28N 49°27' E 001°04'0 0.0
2019-Jun-13 11:58N 49°27' E 001°04'0 0.0
2019-Jun-13 11:28N 49°27' E 001°04'0 0.0
2019-Jun-13 10:58N 49°27' E 001°04'0 0.0
2019-Jun-13 10:28N 49°27' E 001°04'0 0.0
2019-Jun-13 09:58N 49°27' E 001°04'0 0.0
2019-Jun-13 09:28N 49°27' E 001°04'0 0.0
2019-Jun-13 08:58N 49°27' E 001°04'0 0.0
2019-Jun-13 08:28N 49°27' E 001°04'0 0.0
2019-Jun-13 07:58N 49°27' E 001°04'0 0.0
2019-Jun-13 07:28N 49°27' E 001°04'0 0.0
2019-Jun-13 06:58N 49°27' E 001°04'0 0.0
2019-Jun-13 06:28N 49°27' E 001°04'0 0.0
2019-Jun-13 05:58N 49°27' E 001°04'0 0.0
2019-Jun-13 05:25N 49°27' E 001°04'0 0.0
2019-Jun-13 04:58N 49°27' E 001°04'0 0.0
2019-Jun-13 04:22N 49°27' E 001°04'0 0.0
2019-Jun-13 03:58N 49°27' E 001°04'0 0.0
2019-Jun-13 03:25N 49°27' E 001°04'0 0.0
2019-Jun-13 02:55N 49°27' E 001°04'0 0.0
2019-Jun-13 02:25N 49°27' E 001°04'0 0.0
2019-Jun-13 01:55N 49°27' E 001°04'0 0.0
2019-Jun-13 01:28N 49°27' E 001°04'0 0.0
2019-Jun-13 00:58N 49°27' E 001°04'0 0.0
2019-Jun-13 00:28N 49°27' E 001°04'0 0.0
2019-Jun-12 23:58N 49°27' E 001°04'0 0.0
2019-Jun-12 23:28N 49°27' E 001°04'0 0.0
2019-Jun-12 22:58N 49°27' E 001°04'0 0.0
2019-Jun-12 22:28N 49°27' E 001°04'0 0.0
2019-Jun-12 21:55N 49°27' E 001°04'0 0.0
2019-Jun-12 21:25N 49°27' E 001°04'0 0.0
2019-Jun-12 20:55N 49°27' E 001°04'0 0.0
2019-Jun-12 20:28N 49°27' E 001°04'0 0.0
2019-Jun-12 19:55N 49°27' E 001°04'0 0.0
2019-Jun-12 19:28N 49°27' E 001°04'0 0.0
2019-Jun-12 18:55N 49°27' E 001°04'0 0.0
2019-Jun-12 18:25N 49°27' E 001°04'0 0.0
2019-Jun-12 17:58N 49°27' E 001°04'0 0.0
2019-Jun-12 17:28N 49°27' E 001°04'0 0.0
2019-Jun-12 16:58N 49°27' E 001°04'0 0.0
2019-Jun-12 16:28N 49°27' E 001°04'0 0.0
2019-Jun-12 15:58N 49°27' E 001°04'0 0.0
2019-Jun-12 15:25N 49°27' E 001°04'0 0.0
2019-Jun-12 14:58N 49°27' E 001°04'0 0.0
2019-Jun-12 14:28N 49°27' E 001°04'0 0.0
2019-Jun-12 13:55N 49°27' E 001°04'0 0.0
2019-Jun-12 13:25N 49°27' E 001°04'0 0.0
2019-Jun-12 12:58N 49°27' E 001°04'0 0.0
2019-Jun-12 12:28N 49°27' E 001°04'0 0.0
2019-Jun-12 11:58N 49°27' E 001°04'0 0.0
2019-Jun-12 11:28N 49°27' E 001°04'0 0.0
2019-Jun-12 10:58N 49°27' E 001°04'0 0.0
2019-Jun-12 10:28N 49°27' E 001°04'0 0.0
2019-Jun-12 09:58N 49°27' E 001°04'0 0.0
2019-Jun-12 09:28N 49°27' E 001°04'0 0.0
2019-Jun-12 08:55N 49°27' E 001°04'0 0.0
2019-Jun-12 08:28N 49°27' E 001°04'0 0.0
2019-Jun-12 07:58N 49°27' E 001°04'0 0.0
2019-Jun-12 07:28N 49°27' E 001°04'0 0.0
2019-Jun-12 06:58N 49°27' E 001°04'0 0.0
2019-Jun-12 06:28N 49°27' E 001°04'0 0.0
2019-Jun-12 05:52N 49°27' E 001°04'0 0.0
2019-Jun-12 05:28N 49°27' E 001°04'0 0.0
2019-Jun-12 04:58N 49°27' E 001°04'0 0.0
2019-Jun-12 04:22N 49°27' E 001°04'0 0.0
2019-Jun-12 03:58N 49°27' E 001°04'0 0.0
2019-Jun-12 03:28N 49°27' E 001°04'0 0.0
2019-Jun-12 02:55N 49°27' E 001°04'0 0.0
2019-Jun-12 01:58N 49°27' E 001°04'0 0.0
2019-Jun-12 01:28N 49°27' E 001°04'0 0.0
2019-Jun-12 00:58N 49°27' E 001°04'0 0.0
2019-Jun-12 00:28N 49°27' E 001°04'0 0.0
2019-Jun-11 23:58N 49°27' E 001°04'0 0.0
2019-Jun-11 23:28N 49°27' E 001°04'0 0.0
2019-Jun-11 22:58N 49°27' E 001°04'0 0.0
2019-Jun-11 22:28N 49°27' E 001°04'0 0.0
2019-Jun-11 21:58N 49°27' E 001°04'0 0.0
2019-Jun-11 21:28N 49°27' E 001°04'0 0.0
2019-Jun-11 20:55N 49°27' E 001°04'0 0.0
2019-Jun-11 20:28N 49°27' E 001°04'0 0.0
2019-Jun-11 19:58N 49°27' E 001°04'0 0.0
2019-Jun-11 19:28N 49°27' E 001°04'0 0.0
2019-Jun-11 18:58N 49°27' E 001°04'0 0.0
2019-Jun-11 18:28N 49°27' E 001°04'0 0.0
2019-Jun-11 17:58N 49°27' E 001°04'0 0.0
2019-Jun-11 17:28N 49°27' E 001°04'0 0.0
2019-Jun-11 16:58N 49°27' E 001°04'0 0.0
2019-Jun-11 16:25N 49°27' E 001°04'0 0.0
2019-Jun-11 15:58N 49°27' E 001°04'0 0.0
2019-Jun-11 15:25N 49°27' E 001°04'0 0.0
2019-Jun-11 14:55N 49°27' E 001°04'0 0.0
2019-Jun-11 14:28N 49°27' E 001°04'0 0.0
2019-Jun-11 13:55N 49°27' E 001°04'0 0.0
2019-Jun-11 13:28N 49°27' E 001°04'0 0.0
2019-Jun-11 12:58N 49°27' E 001°04'0 0.0
2019-Jun-11 12:25N 49°27' E 001°04'0 0.0
2019-Jun-11 11:55N 49°27' E 001°04'0 0.0
2019-Jun-11 11:28N 49°27' E 001°04'0 0.0
2019-Jun-11 10:58N 49°27' E 001°04'0 0.0
2019-Jun-11 10:28N 49°27' E 001°04'0 0.0
2019-Jun-11 09:58N 49°27' E 001°04'0 0.0
2019-Jun-11 09:25N 49°27' E 001°04'0 0.0
2019-Jun-11 08:58N 49°27' E 001°04'0 0.0
2019-Jun-11 08:28N 49°27' E 001°04'0 0.0
2019-Jun-11 07:58N 49°27' E 001°04'0 0.0
2019-Jun-11 07:28N 49°27' E 001°04'0 0.0
2019-Jun-11 06:58N 49°27' E 001°04'0 0.0
2019-Jun-11 06:28N 49°27' E 001°04'0 0.0
2019-Jun-11 05:58N 49°27' E 001°04'0 0.0
2019-Jun-11 05:28N 49°27' E 001°04'0 0.0
2019-Jun-11 04:58N 49°27' E 001°04'0 0.0
2019-Jun-11 04:22N 49°27' E 001°04'0 0.0
2019-Jun-11 03:55N 49°27' E 001°04'0 0.0
2019-Jun-11 03:25N 49°27' E 001°04'0 0.0
2019-Jun-11 02:49N 49°27' E 001°04'0 0.0
2019-Jun-11 02:28N 49°27' E 001°04'0 0.0
2019-Jun-11 01:55N 49°27' E 001°04'0 0.0
2019-Jun-11 01:28N 49°27' E 001°04'0 0.0
2019-Jun-11 00:55N 49°27' E 001°04'0 0.0
2019-Jun-11 00:28N 49°27' E 001°04'0 0.0
2019-Jun-10 23:58N 49°27' E 001°04'0 0.0
2019-Jun-10 23:25N 49°27' E 001°04'0 0.0
2019-Jun-10 22:58N 49°27' E 001°04'0 0.0
2019-Jun-10 22:28N 49°27' E 001°04'0 0.0
2019-Jun-10 21:55N 49°27' E 001°04'0 0.0
2019-Jun-10 21:28N 49°27' E 001°04'0 0.0
2019-Jun-10 20:58N 49°27' E 001°04'0 0.0
2019-Jun-10 20:28N 49°27' E 001°04'0 0.0
2019-Jun-10 19:58N 49°27' E 001°04'0 0.0
2019-Jun-10 19:28N 49°27' E 001°04'0 0.0
2019-Jun-10 18:58N 49°27' E 001°04'0 0.0
2019-Jun-10 18:28N 49°27' E 001°04'0 0.0
2019-Jun-10 17:58N 49°27' E 001°04'0 0.0
2019-Jun-10 17:25N 49°27' E 001°04'0 0.0
2019-Jun-10 16:58N 49°27' E 001°04'0 0.0
2019-Jun-10 16:25N 49°27' E 001°04'0 0.0
2019-Jun-10 15:55N 49°27' E 001°04'0 0.0
2019-Jun-10 15:28N 49°27' E 001°04'0 0.0
2019-Jun-10 14:58N 49°27' E 001°04'0 0.0
2019-Jun-10 14:25N 49°27' E 001°04'0 0.0
2019-Jun-10 13:58N 49°27' E 001°04'0 0.0
2019-Jun-10 13:28N 49°27' E 001°04'0 0.0
2019-Jun-10 12:55N 49°27' E 001°04'0 0.0
2019-Jun-10 12:28N 49°27' E 001°04'0 0.0
2019-Jun-10 11:58N 49°27' E 001°04'0 0.0
2019-Jun-10 11:28N 49°27' E 001°04'0 0.0
2019-Jun-10 10:58N 49°27' E 001°04'0 0.0
2019-Jun-10 10:28N 49°27' E 001°04'0 0.0
2019-Jun-10 09:55N 49°27' E 001°04'0 0.0
2019-Jun-10 09:28N 49°27' E 001°04'0 0.0
2019-Jun-10 08:58N 49°27' E 001°04'0 0.0
2019-Jun-10 08:28N 49°27' E 001°04'0 0.0
2019-Jun-10 07:58N 49°27' E 001°04'0 0.0
2019-Jun-10 07:25N 49°27' E 001°04'0 0.0
2019-Jun-10 06:58N 49°27' E 001°04'0 0.0
2019-Jun-10 06:28N 49°27' E 001°04'0 0.0
2019-Jun-10 05:55N 49°27' E 001°04'0 0.0
2019-Jun-10 05:31N 49°27' E 001°04'2 4.3
2019-Jun-10 05:00N 49°25' E 001°01'4 8.7
2019-Jun-10 04:30N 49°21' E 000°59'4 7.1
2019-Jun-10 04:01N 49°24' E 000°55'5 9.6
2019-Jun-10 03:30N 49°29' E 000°55'4 8.0
2019-Jun-10 03:00N 49°26' E 000°52'2 4.5
2019-Jun-10 02:30N 49°25' E 000°48'4 8.6
2019-Jun-10 02:01N 49°29' E 000°46'4 8.0
2019-Jun-10 01:31N 49°31' E 000°41'510.2
2019-Jun-10 01:01N 49°26' E 000°38'5 9.8
2019-Jun-10 00:31N 49°29' E 000°31'5 9.6
2019-Jun-10 00:01N 49°27' E 000°25'5 9.6
2019-Jun-09 23:31N 49°26' E 000°17'4 8.8
2019-Jun-09 23:01N 49°26' E 000°11'4 8.0
2019-Jun-09 22:31N 49°26' E 000°04'4 7.5
2019-Jun-09 22:01N 49°28' W 000°00'0 0.2
2019-Jun-09 21:30N 49°28' W 000°00'2 3.4
2019-Jun-09 21:00N 49°29' W 000°03'2 4.6
2019-Jun-09 20:30N 49°31' W 000°05'3 5.5
2019-Jun-09 20:00N 49°33' W 000°04'4 7.8
2019-Jun-09 19:30N 49°37' W 000°02'4 8.3
2019-Jun-09 19:00N 49°41' E 000°00'4 8.6
2019-Jun-09 18:30N 49°45' E 000°04'5 9.1
2019-Jun-09 18:00N 49°48' E 000°09'5 8.9
2019-Jun-09 17:29N 49°51' E 000°14'17 8.0
2019-Jun-09 15:23N 50°02' E 000°34'10 6.5
2019-Jun-09 13:52N 50°08' E 000°46'61 6.0
2019-Jun-09 03:43N 50°58' E 001°41'1 2.8
2019-Jun-09 03:28N 50°58' E 001°43'2 3.6
2019-Jun-09 03:00N 50°58' E 001°45'2 3.6
2019-Jun-09 02:30N 50°58' E 001°48'2 4.1
2019-Jun-09 01:59N 50°58' E 001°51'0 0.1
2019-Jun-08 23:23N 50°58' E 001°52'0 0.0
2019-Jun-08 22:35N 50°58' E 001°52'0 0.0
2019-Jun-08 21:47N 50°58' E 001°52'0 0.0
2019-Jun-08 21:23N 50°58' E 001°52'0 0.0
2019-Jun-08 20:59N 50°58' E 001°52'0 0.0
2019-Jun-08 18:59N 50°58' E 001°52'0 0.0
2019-Jun-08 18:20N 50°58' E 001°52'0 0.0
2019-Jun-08 17:56N 50°58' E 001°52'0 0.0
2019-Jun-08 17:11N 50°58' E 001°52'0 0.0
2019-Jun-08 14:20N 50°58' E 001°52'0 0.0
2019-Jun-08 13:38N 50°58' E 001°52'0 0.0
2019-Jun-08 13:14N 50°58' E 001°52'0 0.0
2019-Jun-08 12:59N 50°58' E 001°52'0 0.0
2019-Jun-08 12:14N 50°58' E 001°52'0 0.0
2019-Jun-08 11:59N 50°58' E 001°52'0 0.0
2019-Jun-08 11:29N 50°58' E 001°52'0 0.0
2019-Jun-08 10:59N 50°58' E 001°52'0 0.0
2019-Jun-08 10:29N 50°58' E 001°52'0 0.0
2019-Jun-08 09:56N 50°58' E 001°52'0 0.0
2019-Jun-08 09:26N 50°58' E 001°52'0 0.0
2019-Jun-08 08:53N 50°58' E 001°52'0 0.0
2019-Jun-08 08:23N 50°58' E 001°52'0 0.0
2019-Jun-08 07:59N 50°58' E 001°52'0 0.0
2019-Jun-08 07:26N 50°58' E 001°52'0 0.0
2019-Jun-08 06:41N 50°58' E 001°52'0 0.0
2019-Jun-08 06:20N 50°58' E 001°52'0 0.0
2019-Jun-08 05:59N 50°58' E 001°52'0 0.0
2019-Jun-08 05:26N 50°58' E 001°52'0 0.0
2019-Jun-08 04:56N 50°58' E 001°52'0 0.0
2019-Jun-08 04:29N 50°58' E 001°52'0 0.0
2019-Jun-08 03:35N 50°58' E 001°52'0 0.0
2019-Jun-08 03:08N 50°58' E 001°52'0 0.0
2019-Jun-08 02:59N 50°58' E 001°52'0 0.0
2019-Jun-08 02:29N 50°58' E 001°52'0 0.0
2019-Jun-08 01:35N 50°58' E 001°52'0 0.0
2019-Jun-08 01:26N 50°58' E 001°52'0 0.0
2019-Jun-08 00:59N 50°58' E 001°52'0 0.0
2019-Jun-08 00:26N 50°58' E 001°52'0 0.0
2019-Jun-07 23:56N 50°58' E 001°52'0 0.0
2019-Jun-07 23:29N 50°58' E 001°52'0 0.0
2019-Jun-07 21:11N 50°58' E 001°52'0 0.0
2019-Jun-07 18:35N 50°58' E 001°52'0 0.0
2019-Jun-07 18:23N 50°58' E 001°52'0 0.0
2019-Jun-07 17:23N 50°58' E 001°52'0 0.0
2019-Jun-07 16:35N 50°58' E 001°52'0 0.0
2019-Jun-07 15:05N 50°58' E 001°52'0 0.0
2019-Jun-07 14:05N 50°58' E 001°52'0 0.1
2019-Jun-07 13:59N 50°58' E 001°52'0 0.0
2019-Jun-07 11:23N 50°58' E 001°52'0 0.0
2019-Jun-07 10:59N 50°58' E 001°52'0 0.0
2019-Jun-07 09:59N 50°58' E 001°52'0 0.1
2019-Jun-07 09:26N 50°58' E 001°52'0 0.0
2019-Jun-07 08:59N 50°58' E 001°52'0 0.0
2019-Jun-07 08:20N 50°58' E 001°52'0 0.0
2019-Jun-07 07:59N 50°58' E 001°52'0 0.0
2019-Jun-07 07:11N 50°58' E 001°52'0 0.0
2019-Jun-07 06:56N 50°58' E 001°52'0 0.0
2019-Jun-07 06:26N 50°58' E 001°52'0 0.0
2019-Jun-07 05:53N 50°58' E 001°52'0 0.0
2019-Jun-07 05:23N 50°58' E 001°52'0 0.0
2019-Jun-07 04:20N 50°58' E 001°52'0 0.0
2019-Jun-07 03:26N 50°58' E 001°52'0 0.0
2019-Jun-07 02:32N 50°58' E 001°52'0 0.0
2019-Jun-07 01:59N 50°58' E 001°52'0 0.0
2019-Jun-07 00:59N 50°58' E 001°52'0 0.0
2019-Jun-07 00:23N 50°58' E 001°52'0 0.0
2019-Jun-06 23:56N 50°58' E 001°52'0 0.0
2019-Jun-06 23:11N 50°58' E 001°52'0 0.0
2019-Jun-06 22:53N 50°58' E 001°52'  

Dump ship's entire track history